Todd G — WRC6671 — position and weather

sailwx.info

Track history (hours):
 
Tides and Currents Weather Stations Pressure Air Temp Water Temp Dewpoint Dewpoint Depression Visibility Wind Speed Wind Dir Waves Ship Positions

Todd G

Owner: Harbor Towing & Fleeting, Inc., Metairie, LA. More information available from US FCC via Universal Licensing System and Coast Guard Vessel Documentation Center.

Last reported at 2015-Mar-29 00:22 UTC. Time now 2015-Mar-29 16:05 UTC.
Position N 29°56' W 090°00'.

Length 16 m.

Type: Towing. MMSI: 366988470.

Date/timePositionNaut miles runAvg speedWind from/ knotsBaromVisibWave heightAir tempDewpointWater temp
2015-Mar-29 00:22N 29°56' W 090°00'2 2.3
2015-Mar-28 23:30N 29°58' W 090°02'2 2.2
2015-Mar-28 22:34N 29°60' W 090°00'1 1.0
2015-Mar-28 21:31N 29°59' W 090°01'1 1.5
2015-Mar-28 20:32N 29°58' W 090°02'1 1.3
2015-Mar-28 19:32N 29°57' W 090°01'0 0.4
2015-Mar-28 18:27N 29°56' W 090°00'0 0.1
2015-Mar-28 17:31N 29°56' W 090°00'0 0.1
2015-Mar-28 16:32N 29°56' W 090°00'0 0.0
2015-Mar-28 15:31N 29°56' W 090°00'0 0.0
2015-Mar-28 14:27N 29°56' W 090°00'0 0.0
2015-Mar-28 13:31N 29°56' W 090°00'0 0.0
2015-Mar-28 12:24N 29°56' W 090°00'0 0.0
2015-Mar-28 11:27N 29°56' W 090°00'0 0.3
2015-Mar-28 10:05N 29°57' W 090°01'3 0.2
2015-Mar-27 18:05N 29°60' W 090°01'1 0.3
2015-Mar-27 16:05N 29°59' W 090°01'0 0.2
2015-Mar-27 15:16N 29°59' W 090°01'2 2.2
2015-Mar-27 14:20N 29°57' W 090°01'1 1.0
2015-Mar-27 13:13N 29°56' W 090°00'0 0.0
2015-Mar-27 12:29N 29°56' W 090°00'0 0.0
2015-Mar-27 11:32N 29°56' W 090°00'1 0.6
2015-Mar-27 10:28N 29°56' W 089°60'3 2.6
2015-Mar-27 09:31N 29°58' W 090°02'1 0.6
2015-Mar-27 08:30N 29°59' W 090°01'2 1.7
2015-Mar-27 07:32N 29°60' W 089°60'3 2.4
2015-Mar-27 06:28N 29°58' W 090°02'0 0.0
2015-Mar-27 05:31N 29°58' W 090°02'2 1.8
2015-Mar-27 04:30N 29°56' W 090°00'0 0.0
2015-Mar-27 03:12N 29°56' W 090°00'0 0.0
2015-Mar-27 02:22N 29°56' W 090°00'0 0.0
2015-Mar-27 01:31N 29°56' W 090°00'0 0.0
2015-Mar-26 23:33N 29°56' W 090°00'0 0.0
2015-Mar-26 22:15N 29°56' W 090°00'0 0.0
2015-Mar-26 21:30N 29°56' W 090°00'0 0.0
2015-Mar-26 20:15N 29°56' W 090°00'2 0.1
2015-Mar-26 01:24N 29°58' W 090°02'0 0.3
2015-Mar-26 00:28N 29°58' W 090°02'2 0.8
2015-Mar-25 22:20N 29°56' W 090°00'0 0.0
2015-Mar-25 20:12N 29°56' W 090°00'1 1.0
2015-Mar-25 19:06N 29°57' W 090°01'6 5.9
2015-Mar-25 18:10N 29°54' W 090°07'0 0.4
2015-Mar-25 17:23N 29°54' W 090°07'1 1.6
2015-Mar-25 16:31N 29°55' W 090°05'0 0.4
2015-Mar-25 15:30N 29°54' W 090°05'1 0.8
2015-Mar-25 14:13N 29°53' W 090°05'0 0.0
2015-Mar-25 13:28N 29°53' W 090°05'0 0.0
2015-Mar-25 12:24N 29°53' W 090°05'0 0.0
2015-Mar-25 11:32N 29°53' W 090°05'0 0.0
2015-Mar-25 10:33N 29°53' W 090°05'0 0.0
2015-Mar-25 09:33N 29°53' W 090°05'0 0.0
2015-Mar-25 08:31N 29°53' W 090°05'0 0.0
2015-Mar-25 07:28N 29°53' W 090°05'0 0.0
2015-Mar-25 06:21N 29°53' W 090°05'0 0.0
2015-Mar-25 05:24N 29°53' W 090°05'3 3.0
2015-Mar-25 04:16N 29°50' W 090°04'2 0.9
2015-Mar-25 02:23N 29°51' W 090°04'6 0.3
2015-Mar-24 06:09N 29°56' W 090°00'0 0.0
2015-Mar-24 01:29N 29°56' W 090°00'0 0.0
2015-Mar-24 00:16N 29°56' W 090°00'2 2.8
2015-Mar-23 23:30N 29°58' W 090°02'1 1.4
2015-Mar-23 22:33N 29°59' W 090°01'0 0.0
2015-Mar-23 21:30N 29°59' W 090°01'0 0.0
2015-Mar-23 20:31N 29°59' W 090°01'0 0.0
2015-Mar-23 19:32N 29°59' W 090°01'0 0.2
2015-Mar-23 18:32N 29°59' W 090°01'0 0.2
2015-Mar-23 17:31N 29°59' W 090°01'0 0.2
2015-Mar-23 16:32N 29°59' W 090°01'0 0.2
2015-Mar-23 15:33N 29°59' W 090°01'0 0.0
2015-Mar-23 14:33N 29°59' W 090°01'0 0.3
2015-Mar-23 13:33N 29°59' W 090°01'0 0.3
2015-Mar-23 12:29N 29°59' W 090°01'0 0.0
2015-Mar-23 11:33N 29°59' W 090°01'2 1.9
2015-Mar-23 10:33N 29°57' W 090°01'1 1.4
2015-Mar-23 09:33N 29°56' W 090°00'0 0.0
2015-Mar-23 08:32N 29°56' W 090°00'0 0.0
2015-Mar-23 07:30N 29°56' W 090°00'0 0.0
2015-Mar-23 06:33N 29°56' W 090°00'0 0.0
2015-Mar-23 05:10N 29°56' W 090°00'0 0.0
2015-Mar-22 07:20N 29°56' W 090°00'0 0.0
2015-Mar-22 06:30N 29°56' W 090°00'0 0.0
2015-Mar-22 05:14N 29°56' W 090°00'0 0.0
2015-Mar-22 04:26N 29°56' W 090°00'0 0.0
2015-Mar-22 03:33N 29°56' W 090°00'0 0.0
2015-Mar-22 02:11N 29°56' W 090°00'0 0.0
2015-Mar-22 01:28N 29°56' W 090°00'0 0.0
2015-Mar-22 00:27N 29°56' W 090°00'0 0.0
2015-Mar-21 23:33N 29°56' W 090°00'2 1.9
2015-Mar-21 22:33N 29°58' W 090°02'1 1.0
2015-Mar-21 21:32N 29°59' W 090°01'1 1.4
2015-Mar-21 20:30N 29°60' W 090°00'2 2.5
2015-Mar-21 19:33N 29°58' W 090°02'0 0.3
2015-Mar-21 18:33N 29°58' W 090°02'2 1.7
2015-Mar-21 17:31N 29°56' W 090°00'0 0.0
2015-Mar-21 16:33N 29°56' W 090°00'0 0.0
2015-Mar-21 15:18N 29°56' W 090°00'0 0.0
2015-Mar-21 14:26N 29°56' W 090°00'2 2.8
2015-Mar-21 13:33N 29°58' W 090°03'1 0.0
2015-Mar-20 17:04N 29°58' W 090°02'0 0.5
2015-Mar-20 16:25N 29°58' W 090°02'2 0.8
2015-Mar-20 14:21N 29°56' W 090°00'0 0.0
2015-Mar-20 13:29N 29°56' W 090°00'0 0.0
2015-Mar-20 08:10N 29°56' W 090°00'0 0.0
2015-Mar-20 06:20N 29°56' W 090°00'0 0.0
2015-Mar-20 05:30N 29°56' W 090°00'0 0.0
2015-Mar-20 04:30N 29°56' W 090°00'0 0.0
2015-Mar-20 03:32N 29°56' W 090°00'1 0.9
2015-Mar-20 02:33N 29°56' W 089°59'3 2.6
2015-Mar-20 01:33N 29°57' W 090°02'1 1.3
2015-Mar-20 00:27N 29°59' W 090°01'2 1.7
2015-Mar-19 23:27N 29°57' W 090°01'1 1.0
2015-Mar-19 22:13N 29°56' W 090°00'1 0.1
2015-Mar-19 10:21N 29°57' W 090°01'1 0.5
2015-Mar-19 07:21N 29°56' W 090°00'0 0.0
2015-Mar-19 05:15N 29°56' W 090°00'0 0.0
2015-Mar-19 04:33N 29°56' W 090°00'0 0.0
2015-Mar-19 03:06N 29°56' W 090°00'0 0.0
2015-Mar-19 01:19N 29°56' W 090°00'  
Track history (hours):
 
Tides and Currents Weather Stations Pressure Air Temp Water Temp Dewpoint Dewpoint Depression Visibility Wind Speed Wind Dir Waves Ship Positions

Todd G

Owner: Harbor Towing & Fleeting, Inc., Metairie, LA. More information available from US FCC via Universal Licensing System and Coast Guard Vessel Documentation Center.

Last reported at 2015-Mar-29 00:22 UTC. Time now 2015-Mar-29 16:05 UTC.
Position N 29°56' W 090°00'.

Length 16 m.

Type: Towing. MMSI: 366988470.

Date/timePositionNaut miles runAvg speedWind from/ knotsBaromVisibWave heightAir tempDewpointWater temp
2015-Mar-29 00:22N 29°56' W 090°00'2 2.3
2015-Mar-28 23:30N 29°58' W 090°02'2 2.2
2015-Mar-28 22:34N 29°60' W 090°00'1 1.0
2015-Mar-28 21:31N 29°59' W 090°01'1 1.5
2015-Mar-28 20:32N 29°58' W 090°02'1 1.3
2015-Mar-28 19:32N 29°57' W 090°01'0 0.4
2015-Mar-28 18:27N 29°56' W 090°00'0 0.1
2015-Mar-28 17:31N 29°56' W 090°00'0 0.1
2015-Mar-28 16:32N 29°56' W 090°00'0 0.0
2015-Mar-28 15:31N 29°56' W 090°00'0 0.0
2015-Mar-28 14:27N 29°56' W 090°00'0 0.0
2015-Mar-28 13:31N 29°56' W 090°00'0 0.0
2015-Mar-28 12:24N 29°56' W 090°00'0 0.0
2015-Mar-28 11:27N 29°56' W 090°00'0 0.3
2015-Mar-28 10:05N 29°57' W 090°01'3 0.2
2015-Mar-27 18:05N 29°60' W 090°01'1 0.3
2015-Mar-27 16:05N 29°59' W 090°01'0 0.2
2015-Mar-27 15:16N 29°59' W 090°01'2 2.2
2015-Mar-27 14:20N 29°57' W 090°01'1 1.0
2015-Mar-27 13:13N 29°56' W 090°00'0 0.0
2015-Mar-27 12:29N 29°56' W 090°00'0 0.0
2015-Mar-27 11:32N 29°56' W 090°00'1 0.6
2015-Mar-27 10:28N 29°56' W 089°60'3 2.6
2015-Mar-27 09:31N 29°58' W 090°02'1 0.6
2015-Mar-27 08:30N 29°59' W 090°01'2 1.7
2015-Mar-27 07:32N 29°60' W 089°60'3 2.4
2015-Mar-27 06:28N 29°58' W 090°02'0 0.0
2015-Mar-27 05:31N 29°58' W 090°02'2 1.8
2015-Mar-27 04:30N 29°56' W 090°00'0 0.0
2015-Mar-27 03:12N 29°56' W 090°00'0 0.0
2015-Mar-27 02:22N 29°56' W 090°00'0 0.0
2015-Mar-27 01:31N 29°56' W 090°00'0 0.0
2015-Mar-26 23:33N 29°56' W 090°00'0 0.0
2015-Mar-26 22:15N 29°56' W 090°00'0 0.0
2015-Mar-26 21:30N 29°56' W 090°00'0 0.0
2015-Mar-26 20:15N 29°56' W 090°00'2 0.1
2015-Mar-26 01:24N 29°58' W 090°02'0 0.3
2015-Mar-26 00:28N 29°58' W 090°02'2 0.8
2015-Mar-25 22:20N 29°56' W 090°00'0 0.0
2015-Mar-25 20:12N 29°56' W 090°00'1 1.0
2015-Mar-25 19:06N 29°57' W 090°01'6 5.9
2015-Mar-25 18:10N 29°54' W 090°07'0 0.4
2015-Mar-25 17:23N 29°54' W 090°07'1 1.6
2015-Mar-25 16:31N 29°55' W 090°05'0 0.4
2015-Mar-25 15:30N 29°54' W 090°05'1 0.8
2015-Mar-25 14:13N 29°53' W 090°05'0 0.0
2015-Mar-25 13:28N 29°53' W 090°05'0 0.0
2015-Mar-25 12:24N 29°53' W 090°05'0 0.0
2015-Mar-25 11:32N 29°53' W 090°05'0 0.0
2015-Mar-25 10:33N 29°53' W 090°05'0 0.0
2015-Mar-25 09:33N 29°53' W 090°05'0 0.0
2015-Mar-25 08:31N 29°53' W 090°05'0 0.0
2015-Mar-25 07:28N 29°53' W 090°05'0 0.0
2015-Mar-25 06:21N 29°53' W 090°05'0 0.0
2015-Mar-25 05:24N 29°53' W 090°05'3 3.0
2015-Mar-25 04:16N 29°50' W 090°04'2 0.9
2015-Mar-25 02:23N 29°51' W 090°04'6 0.3
2015-Mar-24 06:09N 29°56' W 090°00'0 0.0
2015-Mar-24 01:29N 29°56' W 090°00'0 0.0
2015-Mar-24 00:16N 29°56' W 090°00'2 2.8
2015-Mar-23 23:30N 29°58' W 090°02'1 1.4
2015-Mar-23 22:33N 29°59' W 090°01'0 0.0
2015-Mar-23 21:30N 29°59' W 090°01'0 0.0
2015-Mar-23 20:31N 29°59' W 090°01'0 0.0
2015-Mar-23 19:32N 29°59' W 090°01'0 0.2
2015-Mar-23 18:32N 29°59' W 090°01'0 0.2
2015-Mar-23 17:31N 29°59' W 090°01'0 0.2
2015-Mar-23 16:32N 29°59' W 090°01'0 0.2
2015-Mar-23 15:33N 29°59' W 090°01'0 0.0
2015-Mar-23 14:33N 29°59' W 090°01'0 0.3
2015-Mar-23 13:33N 29°59' W 090°01'0 0.3
2015-Mar-23 12:29N 29°59' W 090°01'0 0.0
2015-Mar-23 11:33N 29°59' W 090°01'2 1.9
2015-Mar-23 10:33N 29°57' W 090°01'1 1.4
2015-Mar-23 09:33N 29°56' W 090°00'0 0.0
2015-Mar-23 08:32N 29°56' W 090°00'0 0.0
2015-Mar-23 07:30N 29°56' W 090°00'0 0.0
2015-Mar-23 06:33N 29°56' W 090°00'0 0.0
2015-Mar-23 05:10N 29°56' W 090°00'0 0.0
2015-Mar-22 07:20N 29°56' W 090°00'0 0.0
2015-Mar-22 06:30N 29°56' W 090°00'0 0.0
2015-Mar-22 05:14N 29°56' W 090°00'0 0.0
2015-Mar-22 04:26N 29°56' W 090°00'0 0.0
2015-Mar-22 03:33N 29°56' W 090°00'0 0.0
2015-Mar-22 02:11N 29°56' W 090°00'0 0.0
2015-Mar-22 01:28N 29°56' W 090°00'0 0.0
2015-Mar-22 00:27N 29°56' W 090°00'0 0.0
2015-Mar-21 23:33N 29°56' W 090°00'2 1.9
2015-Mar-21 22:33N 29°58' W 090°02'1 1.0
2015-Mar-21 21:32N 29°59' W 090°01'1 1.4
2015-Mar-21 20:30N 29°60' W 090°00'2 2.5
2015-Mar-21 19:33N 29°58' W 090°02'0 0.3
2015-Mar-21 18:33N 29°58' W 090°02'2 1.7
2015-Mar-21 17:31N 29°56' W 090°00'0 0.0
2015-Mar-21 16:33N 29°56' W 090°00'0 0.0
2015-Mar-21 15:18N 29°56' W 090°00'0 0.0
2015-Mar-21 14:26N 29°56' W 090°00'2 2.8
2015-Mar-21 13:33N 29°58' W 090°03'1 0.0
2015-Mar-20 17:04N 29°58' W 090°02'0 0.5
2015-Mar-20 16:25N 29°58' W 090°02'2 0.8
2015-Mar-20 14:21N 29°56' W 090°00'0 0.0
2015-Mar-20 13:29N 29°56' W 090°00'0 0.0
2015-Mar-20 08:10N 29°56' W 090°00'0 0.0
2015-Mar-20 06:20N 29°56' W 090°00'0 0.0
2015-Mar-20 05:30N 29°56' W 090°00'0 0.0
2015-Mar-20 04:30N 29°56' W 090°00'0 0.0
2015-Mar-20 03:32N 29°56' W 090°00'1 0.9
2015-Mar-20 02:33N 29°56' W 089°59'3 2.6
2015-Mar-20 01:33N 29°57' W 090°02'1 1.3
2015-Mar-20 00:27N 29°59' W 090°01'2 1.7
2015-Mar-19 23:27N 29°57' W 090°01'1 1.0
2015-Mar-19 22:13N 29°56' W 090°00'1 0.1
2015-Mar-19 10:21N 29°57' W 090°01'1 0.5
2015-Mar-19 07:21N 29°56' W 090°00'0 0.0
2015-Mar-19 05:15N 29°56' W 090°00'0 0.0
2015-Mar-19 04:33N 29°56' W 090°00'0 0.0
2015-Mar-19 03:06N 29°56' W 090°00'0 0.0
2015-Mar-19 01:19N 29°56' W 090°00'  

Dump ship's entire track history